Time;durP1;ratioP1;P1;durP2;ratioP2;P2;SDS_P1;SDS_P2;PMS_P1;PMS_P2;Temp;Humidity;BMP_temperature;BMP_pressure;BME280_temperature;BME280_humidity;BME280_pressure;Samples;Min_cycle;Max_cycle;Signal;HPM_P1;HPM_P2
2021/08/21 00:01:18;;;;;;;3.28;2.00;;;;;;;;;;5015400;28;20104;-43
2021/08/21 00:03:44;;;;;;;4.15;1.50;;;;;;;;;;5030798;28;20052;-42
2021/08/21 00:06:10;;;;;;;5.05;1.52;;;;;;;;;;5015201;28;20020;-43
2021/08/21 00:08:35;;;;;;;5.30;1.65;;;;;;;;;;5030392;28;20030;-42
2021/08/21 00:11:00;;;;;;;2.05;1.40;;;;;;;;;;5015351;28;20018;-43
2021/08/21 00:13:26;;;;;;;3.72;1.35;;;;;;;;;;5015593;28;20076;-43
2021/08/21 00:15:52;;;;;;;4.20;2.20;;;;;;;;;;5015110;28;20018;-42
2021/08/21 00:18:18;;;;;;;2.47;1.77;;;;;;;;;;5015410;28;20030;-43
2021/08/21 00:20:43;;;;;;;2.85;1.83;;;;;;;;;;5015050;28;20037;-42
2021/08/21 00:23:08;;;;;;;3.50;1.40;;;;;;;;;;5015093;28;20033;-42
2021/08/21 00:25:34;;;;;;;2.90;1.70;;;;;;;;;;5029952;28;20048;-43
2021/08/21 00:27:59;;;;;;;2.65;1.27;;;;;;;;;;5015090;28;20029;-43
2021/08/21 00:30:24;;;;;;;3.28;1.88;;;;;;;;;;5014956;28;20366;-42
2021/08/21 00:32:51;;;;;;;3.80;1.80;;;;;;;;;;5014722;28;20477;-43
2021/08/21 00:35:17;;;;;;;2.70;1.67;;;;;;;;;;5029982;28;20034;-44
2021/08/21 00:37:42;;;;;;;2.60;1.60;;;;;;;;;;5014586;28;20037;-43
2021/08/21 00:40:08;;;;;;;2.28;1.70;;;;;;;;;;5014778;28;20420;-43
2021/08/21 00:42:35;;;;;;;3.95;2.10;;;;;;;;;;5014579;28;20252;-43
2021/08/21 00:45:00;;;;;;;4.53;1.80;;;;;;;;;;5029344;28;20076;-43
2021/08/21 00:47:26;;;;;;;2.13;1.63;;;;;;;;;;5029708;28;20038;-43
2021/08/21 00:49:52;;;;;;;4.03;1.58;;;;;;;;;;5014201;28;20017;-43
2021/08/21 00:52:26;;;;;;;2.03;1.40;;;;;;;;;;5014515;28;20026;-43
2021/08/21 00:54:52;;;;;;;3.53;2.28;;;;;;;;;;5029428;28;20370;-43
2021/08/21 00:57:17;;;;;;;3.05;1.60;;;;;;;;;;5014652;28;20018;-43
2021/08/21 00:59:44;;;;;;;2.10;1.63;;;;;;;;;;5014066;28;20041;-43
2021/08/21 01:02:10;;;;;;;3.42;1.80;;;;;;;;;;5029368;28;20022;-43
2021/08/21 01:04:37;;;;;;;2.63;1.63;;;;;;;;;;5014222;28;20124;-42
2021/08/21 01:07:07;;;;;;;5.45;1.70;;;;;;;;;;5014145;28;20025;-43
2021/08/21 01:09:35;;;;;;;2.80;1.80;;;;;;;;;;5029265;28;20052;-43
2021/08/21 01:12:00;;;;;;;4.80;1.60;;;;;;;;;;5029109;28;20461;-43
2021/08/21 01:14:30;;;;;;;3.42;1.63;;;;;;;;;;5029263;28;20037;-43
2021/08/21 01:16:56;;;;;;;6.15;1.50;;;;;;;;;;5014104;28;20049;-43
2021/08/21 01:19:22;;;;;;;5.68;1.63;;;;;;;;;;5028987;28;20481;-43
2021/08/21 01:21:48;;;;;;;2.13;1.40;;;;;;;;;;5012555;28;20129;-43
2021/08/21 01:24:15;;;;;;;3.40;2.45;;;;;;;;;;5012295;28;20034;-44
2021/08/21 01:26:49;;;;;;;2.35;1.55;;;;;;;;;;5014007;28;20036;-44
2021/08/21 01:29:24;;;;;;;4.03;1.67;;;;;;;;;;5013850;28;20022;-43
2021/08/21 01:32:00;;;;;;;2.13;1.58;;;;;;;;;;5012401;28;20384;-43
2021/08/21 01:34:26;;;;;;;5.70;2.70;;;;;;;;;;5012350;28;20037;-42
2021/08/21 01:36:52;;;;;;;4.00;1.77;;;;;;;;;;5012275;28;20026;-42
2021/08/21 01:39:48;;;;;;;4.15;1.73;;;;;;;;;;4993910;28;20444;-43
2021/08/21 01:42:37;;;;;;;2.83;1.48;;;;;;;;;;5028717;28;20022;-43
2021/08/21 01:45:08;;;;;;;3.65;1.70;;;;;;;;;;5028613;28;20033;-43
2021/08/21 01:47:33;;;;;;;3.83;1.52;;;;;;;;;;5012038;28;20033;-43
2021/08/21 01:50:00;;;;;;;3.10;1.77;;;;;;;;;;5011963;28;20037;-43
2021/08/21 01:52:27;;;;;;;2.85;1.65;;;;;;;;;;5028446;28;20025;-43
2021/08/21 01:54:53;;;;;;;3.53;1.52;;;;;;;;;;5027396;28;20473;-43
2021/08/21 01:57:19;;;;;;;3.53;1.77;;;;;;;;;;5028454;28;20037;-42
2021/08/21 02:00:02;;;;;;;3.53;1.77;;;;;;;;;;5011685;28;20042;-45
2021/08/21 02:02:40;;;;;;;5.25;1.80;;;;;;;;;;5013688;28;20033;-43
2021/08/21 02:05:15;;;;;;;4.25;1.70;;;;;;;;;;5028348;28;20026;-43
2021/08/21 02:07:41;;;;;;;4.18;1.80;;;;;;;;;;5028100;28;20495;-43
2021/08/21 02:10:07;;;;;;;2.38;1.67;;;;;;;;;;5028092;28;20017;-43
2021/08/21 02:12:33;;;;;;;2.15;1.52;;;;;;;;;;5028150;28;20049;-43
2021/08/21 02:15:11;;;;;;;4.50;2.00;;;;;;;;;;5011580;28;20085;-43
2021/08/21 02:17:41;;;;;;;3.78;1.65;;;;;;;;;;5027992;28;20423;-43
2021/08/21 02:20:23;;;;;;;3.47;1.85;;;;;;;;;;5011497;28;20036;-43
2021/08/21 02:22:50;;;;;;;4.45;1.75;;;;;;;;;;5027976;28;20033;-43
2021/08/21 02:25:15;;;;;;;6.53;1.63;;;;;;;;;;5027740;28;20577;-43
2021/08/21 02:27:45;;;;;;;2.17;1.45;;;;;;;;;;5011444;28;20026;-43
2021/08/21 02:30:10;;;;;;;3.13;1.90;;;;;;;;;;5011415;28;20038;-43
2021/08/21 02:32:36;;;;;;;3.47;1.80;;;;;;;;;;5011515;28;20116;-42
2021/08/21 02:35:02;;;;;;;2.70;1.58;;;;;;;;;;5011324;28;20014;-43
2021/08/21 02:37:28;;;;;;;6.05;3.28;;;;;;;;;;5012658;28;20080;-43
2021/08/21 02:39:54;;;;;;;3.33;2.33;;;;;;;;;;5012730;28;20030;-43
2021/08/21 02:42:19;;;;;;;3.95;1.85;;;;;;;;;;5012876;28;20029;-43
2021/08/21 02:44:45;;;;;;;2.90;1.75;;;;;;;;;;5027775;28;20409;-43
2021/08/21 02:47:10;;;;;;;2.90;1.50;;;;;;;;;;5027870;28;20588;-42
2021/08/21 02:49:36;;;;;;;2.83;1.50;;;;;;;;;;5011175;28;20140;-43
2021/08/21 02:52:02;;;;;;;3.03;1.77;;;;;;;;;;5027693;28;20365;-43
2021/08/21 02:54:28;;;;;;;3.70;1.80;;;;;;;;;;5012139;28;20504;-43
2021/08/21 02:56:54;;;;;;;6.90;1.70;;;;;;;;;;5011040;28;20030;-43
2021/08/21 02:59:20;;;;;;;3.30;1.92;;;;;;;;;;5027530;28;20646;-43
2021/08/21 03:01:46;;;;;;;7.05;3.35;;;;;;;;;;5027425;28;20496;-43
2021/08/21 03:04:12;;;;;;;4.18;1.88;;;;;;;;;;5027514;28;20033;-43
2021/08/21 03:06:38;;;;;;;2.50;1.60;;;;;;;;;;5012364;28;20487;-43
2021/08/21 03:09:06;;;;;;;2.40;1.80;;;;;;;;;;5031555;28;20018;-43
2021/08/21 03:11:32;;;;;;;4.55;1.73;;;;;;;;;;5031498;28;20135;-43
2021/08/21 03:14:21;;;;;;;3.78;1.83;;;;;;;;;;5031520;28;20037;-43
2021/08/21 03:16:47;;;;;;;2.22;1.80;;;;;;;;;;5031385;28;20484;-43
2021/08/21 03:19:13;;;;;;;10.00;1.85;;;;;;;;;;5031143;28;20061;-43
2021/08/21 03:21:38;;;;;;;5.97;1.70;;;;;;;;;;5014841;28;20061;-43
2021/08/21 03:24:05;;;;;;;4.10;2.17;;;;;;;;;;5014747;28;20405;-43
2021/08/21 03:26:31;;;;;;;4.20;2.40;;;;;;;;;;5031082;28;20042;-43
2021/08/21 03:28:56;;;;;;;4.05;1.70;;;;;;;;;;5014577;28;20388;-44
2021/08/21 03:31:22;;;;;;;6.38;1.70;;;;;;;;;;5031030;28;20037;-43
2021/08/21 03:33:48;;;;;;;4.25;1.77;;;;;;;;;;5014650;28;20018;-43
2021/08/21 03:36:14;;;;;;;2.47;1.80;;;;;;;;;;5031008;28;20026;-43
2021/08/21 03:38:41;;;;;;;1.83;1.15;;;;;;;;;;5030815;28;20034;-43
2021/08/21 03:41:14;;;;;;;3.80;1.88;;;;;;;;;;5030972;28;20061;-43
2021/08/21 03:43:52;;;;;;;6.00;1.73;;;;;;;;;;5030856;28;20362;-43
2021/08/21 03:46:17;;;;;;;2.25;1.30;;;;;;;;;;5014359;28;20037;-43
2021/08/21 03:48:43;;;;;;;5.05;1.70;;;;;;;;;;5030700;28;20045;-42
2021/08/21 03:51:09;;;;;;;3.85;1.88;;;;;;;;;;5030783;28;20032;-43
2021/08/21 03:53:40;;;;;;;6.32;2.08;;;;;;;;;;5030553;28;20030;-43
2021/08/21 03:56:11;;;;;;;2.83;1.88;;;;;;;;;;5030769;28;20037;-43
2021/08/21 03:58:44;;;;;;;2.72;1.83;;;;;;;;;;5030491;28;20033;-43
2021/08/21 04:01:09;;;;;;;2.65;1.55;;;;;;;;;;5015157;28;20046;-43
2021/08/21 04:03:36;;;;;;;2.80;2.03;;;;;;;;;;5030632;28;20097;-43
2021/08/21 04:06:03;;;;;;;2.05;1.35;;;;;;;;;;5013870;28;20080;-42
2021/08/21 04:08:29;;;;;;;6.95;1.83;;;;;;;;;;5030450;28;20084;-43
2021/08/21 04:10:54;;;;;;;2.50;1.65;;;;;;;;;;5030371;28;20428;-42
2021/08/21 04:13:20;;;;;;;4.47;2.10;;;;;;;;;;5030272;28;20106;-43
2021/08/21 04:15:46;;;;;;;5.40;2.42;;;;;;;;;;5013731;28;20129;-43
2021/08/21 04:18:13;;;;;;;6.53;1.80;;;;;;;;;;5012663;28;20030;-43
2021/08/21 04:20:39;;;;;;;2.67;1.77;;;;;;;;;;5030146;28;20046;-43
2021/08/21 04:23:05;;;;;;;2.03;1.55;;;;;;;;;;5013703;28;20457;-43
2021/08/21 04:25:33;;;;;;;2.35;1.55;;;;;;;;;;5013487;28;20107;-43
2021/08/21 04:28:04;;;;;;;3.35;1.80;;;;;;;;;;5013440;28;20419;-42
2021/08/21 04:30:29;;;;;;;3.28;1.77;;;;;;;;;;5030072;28;20137;-43
2021/08/21 04:32:55;;;;;;;2.63;1.92;;;;;;;;;;5029979;28;20108;-43
2021/08/21 04:35:22;;;;;;;3.33;1.52;;;;;;;;;;5029882;28;20129;-43
2021/08/21 04:37:49;;;;;;;2.42;1.67;;;;;;;;;;5013379;28;20036;-43
2021/08/21 04:40:16;;;;;;;2.65;1.67;;;;;;;;;;5029857;28;20041;-43
2021/08/21 04:42:42;;;;;;;3.03;2.00;;;;;;;;;;5013171;28;20022;-43
2021/08/21 04:45:08;;;;;;;4.95;2.22;;;;;;;;;;5013358;28;20389;-42
2021/08/21 04:47:35;;;;;;;4.93;2.40;;;;;;;;;;5013297;28;20014;-42
2021/08/21 04:50:03;;;;;;;3.25;1.50;;;;;;;;;;5029471;28;20041;-43
2021/08/21 04:52:31;;;;;;;6.35;2.13;;;;;;;;;;5013229;28;20427;-42
2021/08/21 04:54:58;;;;;;;2.55;1.88;;;;;;;;;;5029550;28;20112;-43
2021/08/21 04:57:23;;;;;;;5.07;1.95;;;;;;;;;;5013032;28;20024;-42
2021/08/21 04:59:49;;;;;;;2.30;1.83;;;;;;;;;;5029261;28;20046;-43
2021/08/21 05:02:15;;;;;;;4.45;2.35;;;;;;;;;;5014270;28;20018;-43
2021/08/21 05:04:41;;;;;;;4.40;1.73;;;;;;;;;;5012809;28;20030;-43
2021/08/21 05:07:07;;;;;;;2.42;1.65;;;;;;;;;;5029427;28;20014;-43
2021/08/21 05:09:34;;;;;;;3.63;1.80;;;;;;;;;;5029335;28;20034;-42
2021/08/21 05:12:05;;;;;;;3.05;1.67;;;;;;;;;;5029062;28;20557;-43
2021/08/21 05:14:39;;;;;;;4.20;1.75;;;;;;;;;;5012726;28;20503;-43
2021/08/21 05:17:07;;;;;;;3.38;1.98;;;;;;;;;;5029198;28;20030;-42
2021/08/21 05:20:03;;;;;;;3.30;1.70;;;;;;;;;;5012436;28;20029;-43
2021/08/21 05:25:14;;;;;;;2.20;1.23;;;;;;;;;;5028765;28;20084;-42
2021/08/21 05:27:39;;;;;;;2.72;1.63;;;;;;;;;;5014049;28;20033;-43
2021/08/21 05:30:06;;;;;;;5.72;1.95;;;;;;;;;;5028622;28;20385;-43
2021/08/21 05:32:31;;;;;;;3.63;1.67;;;;;;;;;;5012352;28;20056;-42
2021/08/21 05:34:57;;;;;;;2.30;1.75;;;;;;;;;;5013358;28;20084;-42
2021/08/21 05:37:22;;;;;;;4.13;1.70;;;;;;;;;;5012107;28;20018;-42
2021/08/21 05:39:48;;;;;;;3.92;1.80;;;;;;;;;;5013284;28;20080;-42
2021/08/21 05:42:13;;;;;;;5.07;1.75;;;;;;;;;;5013542;28;20099;-43
2021/08/21 05:44:39;;;;;;;2.50;1.73;;;;;;;;;;5013753;28;20041;-42
2021/08/21 05:47:04;;;;;;;2.53;1.83;;;;;;;;;;5013612;28;20364;-43
2021/08/21 05:49:29;;;;;;;2.45;1.38;;;;;;;;;;5013617;28;20125;-42
2021/08/21 05:51:55;;;;;;;3.58;1.95;;;;;;;;;;5013311;28;20018;-42
2021/08/21 05:54:26;;;;;;;4.82;2.03;;;;;;;;;;5011961;28;20547;-42
2021/08/21 05:56:51;;;;;;;6.30;1.92;;;;;;;;;;5013413;28;20034;-42
2021/08/21 05:59:17;;;;;;;2.08;1.48;;;;;;;;;;5013180;28;20072;-42
2021/08/21 06:01:42;;;;;;;2.67;1.52;;;;;;;;;;5011726;28;20076;-43
2021/08/21 06:04:08;;;;;;;3.05;1.60;;;;;;;;;;5011926;28;20517;-42
2021/08/21 06:06:35;;;;;;;2.40;1.70;;;;;;;;;;5028354;28;20068;-43
2021/08/21 06:09:02;;;;;;;3.25;2.42;;;;;;;;;;5011577;28;20030;-42
2021/08/21 06:11:27;;;;;;;4.32;1.90;;;;;;;;;;5011856;28;20408;-42
2021/08/21 06:13:53;;;;;;;3.75;1.80;;;;;;;;;;5012967;28;20022;-41
2021/08/21 06:16:18;;;;;;;3.05;1.83;;;;;;;;;;5012869;28;20040;-43
2021/08/21 06:18:44;;;;;;;2.58;1.70;;;;;;;;;;5012829;28;20104;-42
2021/08/21 06:21:09;;;;;;;2.13;1.50;;;;;;;;;;5013035;28;20041;-44
2021/08/21 06:23:35;;;;;;;3.35;1.83;;;;;;;;;;5028101;28;20449;-42
2021/08/21 06:26:00;;;;;;;4.32;1.63;;;;;;;;;;5012450;28;20052;-42
2021/08/21 06:28:26;;;;;;;2.15;1.60;;;;;;;;;;5012702;28;20037;-42
2021/08/21 06:30:51;;;;;;;2.40;1.92;;;;;;;;;;5012727;28;20117;-42
2021/08/21 06:33:16;;;;;;;1.92;1.77;;;;;;;;;;5013002;28;20365;-43
2021/08/21 06:35:42;;;;;;;3.25;1.98;;;;;;;;;;5012564;28;20118;-42
2021/08/21 06:38:07;;;;;;;11.70;1.67;;;;;;;;;;5012894;28;20021;-43
2021/08/21 06:40:32;;;;;;;5.68;3.67;;;;;;;;;;5027471;28;20042;-43
2021/08/21 06:42:58;;;;;;;5.20;2.35;;;;;;;;;;5012177;28;20080;-43
2021/08/21 06:45:42;;;;;;;8.18;1.52;;;;;;;;;;5012802;28;20077;-43
2021/08/21 06:48:07;;;;;;;4.07;1.88;;;;;;;;;;5012549;28;20018;-43
2021/08/21 06:50:33;;;;;;;3.65;2.03;;;;;;;;;;5012464;28;20029;-43
2021/08/21 06:53:03;;;;;;;6.43;1.75;;;;;;;;;;5027695;28;20049;-43
2021/08/21 06:55:29;;;;;;;2.25;1.45;;;;;;;;;;5012535;28;20460;-42
2021/08/21 06:57:54;;;;;;;2.20;1.70;;;;;;;;;;5012283;28;20062;-43
2021/08/21 07:00:20;;;;;;;4.00;2.17;;;;;;;;;;5027886;28;20057;-43
2021/08/21 07:02:45;;;;;;;3.40;2.28;;;;;;;;;;5012369;28;20026;-43
2021/08/21 07:05:10;;;;;;;2.67;1.70;;;;;;;;;;5027561;28;20022;-43
2021/08/21 07:07:36;;;;;;;3.25;1.85;;;;;;;;;;5027565;28;20480;-43
2021/08/21 07:10:12;;;;;;;3.63;1.63;;;;;;;;;;5012530;28;20084;-42
2021/08/21 07:12:37;;;;;;;2.63;1.67;;;;;;;;;;5012295;28;20038;-43
2021/08/21 07:15:02;;;;;;;2.25;1.92;;;;;;;;;;5027392;28;20029;-42
2021/08/21 07:17:28;;;;;;;4.45;1.85;;;;;;;;;;5012346;28;20022;-43
2021/08/21 07:19:53;;;;;;;4.28;2.05;;;;;;;;;;5027294;28;20058;-43
2021/08/21 07:22:19;;;;;;;3.08;1.83;;;;;;;;;;5012215;28;20034;-43
2021/08/21 07:24:44;;;;;;;2.90;1.85;;;;;;;;;;5011971;28;20050;-43
2021/08/21 07:27:10;;;;;;;3.58;2.08;;;;;;;;;;5012190;28;20058;-43
2021/08/21 07:29:35;;;;;;;3.30;1.67;;;;;;;;;;5012098;28;20165;-43
2021/08/21 07:32:00;;;;;;;2.65;1.73;;;;;;;;;;5012070;28;20022;-43
2021/08/21 07:34:26;;;;;;;4.72;1.50;;;;;;;;;;5011993;28;20050;-42
2021/08/21 07:36:51;;;;;;;3.78;1.50;;;;;;;;;;5012017;28;20026;-43
2021/08/21 07:44:29;;;;;;;4.97;2.00;;;;;;;;;;5068415;28;20400;-43
2021/08/21 07:46:55;;;;;;;2.88;1.98;;;;;;;;;;5068368;28;20050;-44
2021/08/21 07:49:20;;;;;;;2.50;2.17;;;;;;;;;;5068370;28;20071;-41
2021/08/21 07:51:45;;;;;;;3.50;1.85;;;;;;;;;;5068496;28;20036;-41
2021/08/21 07:54:11;;;;;;;2.10;1.75;;;;;;;;;;5068434;28;20041;-41
2021/08/21 07:56:36;;;;;;;3.67;2.17;;;;;;;;;;5069660;28;20032;-41
2021/08/21 07:59:01;;;;;;;2.25;1.42;;;;;;;;;;5069456;28;20055;-42
2021/08/21 08:01:27;;;;;;;4.05;2.13;;;;;;;;;;5069514;28;20020;-41
2021/08/21 08:03:52;;;;;;;3.15;2.08;;;;;;;;;;5069860;28;20029;-41
2021/08/21 08:06:18;;;;;;;5.53;2.13;;;;;;;;;;5069465;28;20029;-41
2021/08/21 08:08:43;;;;;;;2.83;1.70;;;;;;;;;;5069227;28;20056;-41
2021/08/21 08:11:08;;;;;;;2.03;1.33;;;;;;;;;;5069263;28;20071;-41
2021/08/21 08:13:34;;;;;;;11.25;1.92;;;;;;;;;;5069552;28;20071;-41
2021/08/21 08:16:00;;;;;;;3.38;1.88;;;;;;;;;;5069187;28;20056;-42
2021/08/21 08:18:25;;;;;;;3.35;2.13;;;;;;;;;;5069439;28;20021;-41
2021/08/21 08:20:51;;;;;;;5.50;1.52;;;;;;;;;;5067858;28;20471;-41
2021/08/21 08:23:16;;;;;;;2.75;1.77;;;;;;;;;;5069314;28;20032;-41
2021/08/21 08:25:41;;;;;;;3.10;1.73;;;;;;;;;;5067814;28;20560;-41
2021/08/21 08:28:07;;;;;;;2.38;1.52;;;;;;;;;;5067569;28;20115;-41
2021/08/21 08:30:32;;;;;;;3.33;1.65;;;;;;;;;;5067644;28;20029;-41
2021/08/21 08:32:57;;;;;;;3.95;2.25;;;;;;;;;;5067596;28;20067;-41
2021/08/21 08:35:23;;;;;;;4.05;1.90;;;;;;;;;;5069146;28;20036;-41
2021/08/21 08:37:48;;;;;;;2.63;1.50;;;;;;;;;;5068649;28;20040;-41
2021/08/21 08:40:14;;;;;;;2.30;1.80;;;;;;;;;;5069002;28;20094;-41
2021/08/21 08:42:40;;;;;;;3.92;2.25;;;;;;;;;;5068474;28;20041;-41
2021/08/21 08:45:06;;;;;;;5.75;1.65;;;;;;;;;;5068587;28;20033;-42
2021/08/21 08:47:33;;;;;;;4.05;2.35;;;;;;;;;;5068504;28;20021;-41
2021/08/21 08:50:03;;;;;;;4.43;1.92;;;;;;;;;;5068465;28;20107;-41
2021/08/21 08:52:29;;;;;;;5.95;2.95;;;;;;;;;;5068711;28;20374;-41
2021/08/21 08:54:54;;;;;;;1.92;1.42;;;;;;;;;;5060525;28;20025;-41
2021/08/21 08:57:39;;;;;;;4.22;2.10;;;;;;;;;;5055501;28;20024;-42
2021/08/21 09:00:06;;;;;;;2.38;1.60;;;;;;;;;;5053812;28;20064;-41
2021/08/21 09:02:36;;;;;;;2.63;1.55;;;;;;;;;;5053841;28;20558;-41
2021/08/21 09:05:04;;;;;;;3.03;1.98;;;;;;;;;;5055007;28;20065;-42
2021/08/21 09:07:38;;;;;;;2.25;1.55;;;;;;;;;;5055004;28;20021;-42
2021/08/21 09:10:30;;;;;;;6.57;2.00;;;;;;;;;;5054620;28;20600;-42
2021/08/21 09:13:01;;;;;;;2.85;1.52;;;;;;;;;;5053646;28;20102;-42
2021/08/21 09:15:30;;;;;;;4.55;1.55;;;;;;;;;;5054846;28;20036;-42
2021/08/21 09:18:00;;;;;;;3.03;1.85;;;;;;;;;;5054670;28;20483;-42
2021/08/21 09:20:25;;;;;;;3.55;1.85;;;;;;;;;;5053547;28;20033;-42
2021/08/21 09:22:50;;;;;;;3.53;2.17;;;;;;;;;;5054544;28;20024;-42
2021/08/21 09:25:27;;;;;;;4.38;2.20;;;;;;;;;;5054967;28;20029;-43
2021/08/21 09:27:52;;;;;;;2.78;1.67;;;;;;;;;;5054452;28;20040;-43
2021/08/21 09:30:18;;;;;;;2.67;1.55;;;;;;;;;;5054520;28;20025;-41
2021/08/21 09:32:44;;;;;;;3.25;1.88;;;;;;;;;;5054822;28;20036;-42
2021/08/21 09:35:10;;;;;;;5.78;2.60;;;;;;;;;;5054692;28;20467;-41
2021/08/21 09:37:48;;;;;;;3.10;2.03;;;;;;;;;;5054428;28;20191;-41
2021/08/21 09:40:22;;;;;;;3.08;1.88;;;;;;;;;;5054667;28;20033;-42
2021/08/21 09:42:48;;;;;;;2.42;1.70;;;;;;;;;;5054002;28;20041;-42
2021/08/21 09:45:13;;;;;;;4.43;2.15;;;;;;;;;;5053202;28;20090;-41
2021/08/21 09:47:39;;;;;;;3.42;2.17;;;;;;;;;;5054402;28;20430;-41
2021/08/21 09:50:13;;;;;;;2.40;1.63;;;;;;;;;;5054404;28;20094;-41
2021/08/21 09:52:38;;;;;;;2.95;1.75;;;;;;;;;;5054526;28;20036;-42
2021/08/21 09:55:05;;;;;;;4.93;1.40;;;;;;;;;;5053210;28;20406;-42
2021/08/21 09:57:30;;;;;;;4.50;1.52;;;;;;;;;;5052866;28;20440;-42
2021/08/21 09:59:57;;;;;;;3.95;1.67;;;;;;;;;;5036095;28;20113;-42
2021/08/21 10:02:23;;;;;;;5.25;1.90;;;;;;;;;;5054144;28;20029;-42
2021/08/21 10:04:49;;;;;;;3.13;1.67;;;;;;;;;;5054167;28;20023;-42
2021/08/21 10:07:24;;;;;;;2.63;1.70;;;;;;;;;;5052973;28;20021;-41
2021/08/21 10:09:52;;;;;;;2.78;1.48;;;;;;;;;;5053807;28;20032;-42
2021/08/21 10:12:20;;;;;;;2.63;1.65;;;;;;;;;;5053848;28;20491;-41
2021/08/21 10:14:47;;;;;;;3.28;1.80;;;;;;;;;;5052329;28;20037;-41
2021/08/21 10:17:16;;;;;;;2.47;1.40;;;;;;;;;;5053667;28;20379;-41
2021/08/21 10:19:42;;;;;;;4.40;2.13;;;;;;;;;;5053693;28;20423;-42
2021/08/21 10:22:10;;;;;;;3.67;1.58;;;;;;;;;;5053779;28;20024;-42
2021/08/21 10:24:37;;;;;;;3.67;2.08;;;;;;;;;;5053508;28;20047;-41
2021/08/21 10:27:03;;;;;;;4.32;2.53;;;;;;;;;;5053436;28;20025;-41
2021/08/21 10:29:28;;;;;;;3.60;1.90;;;;;;;;;;5053730;28;20118;-41
2021/08/21 10:31:55;;;;;;;2.08;1.48;;;;;;;;;;5053567;28;20021;-41
2021/08/21 10:34:20;;;;;;;2.47;1.60;;;;;;;;;;5052136;28;20048;-42
2021/08/21 10:36:49;;;;;;;4.18;1.90;;;;;;;;;;5053230;28;20025;-42
2021/08/21 10:39:14;;;;;;;5.07;1.95;;;;;;;;;;5053484;28;20095;-41
2021/08/21 10:41:40;;;;;;;3.38;2.00;;;;;;;;;;5053238;28;20017;-41
2021/08/21 10:44:05;;;;;;;5.35;2.05;;;;;;;;;;5052922;28;20128;-42
2021/08/21 10:46:30;;;;;;;3.55;1.45;;;;;;;;;;5051933;28;20430;-41
2021/08/21 10:49:03;;;;;;;3.95;1.75;;;;;;;;;;5053049;28;20487;-41
2021/08/21 10:51:28;;;;;;;2.05;1.20;;;;;;;;;;5051924;28;20472;-41
2021/08/21 10:53:54;;;;;;;3.53;2.08;;;;;;;;;;5053198;28;20021;-42
2021/08/21 10:56:31;;;;;;;3.30;1.60;;;;;;;;;;5053030;28;20041;-41
2021/08/21 10:58:57;;;;;;;5.78;2.03;;;;;;;;;;5053101;28;20113;-41
2021/08/21 11:01:23;;;;;;;3.35;1.92;;;;;;;;;;5035073;28;20067;-42
2021/08/21 11:03:49;;;;;;;2.55;1.58;;;;;;;;;;5053070;28;20042;-41
2021/08/21 11:06:15;;;;;;;7.10;1.90;;;;;;;;;;5053071;28;20025;-42
2021/08/21 11:08:41;;;;;;;2.38;1.80;;;;;;;;;;5051453;28;20100;-40
2021/08/21 11:11:18;;;;;;;2.78;1.63;;;;;;;;;;5053001;28;20025;-42
2021/08/21 11:13:56;;;;;;;4.90;1.73;;;;;;;;;;5052527;28;20468;-41
2021/08/21 11:16:22;;;;;;;5.75;1.48;;;;;;;;;;5051359;28;20029;-42
2021/08/21 11:18:49;;;;;;;4.63;1.95;;;;;;;;;;5052311;28;20028;-41
2021/08/21 11:21:30;;;;;;;1.88;1.40;;;;;;;;;;5052557;28;20025;-42
2021/08/21 11:23:56;;;;;;;2.90;1.95;;;;;;;;;;5051217;28;20052;-43
2021/08/21 11:26:22;;;;;;;3.30;1.70;;;;;;;;;;5052765;28;20025;-40
2021/08/21 11:29:04;;;;;;;2.47;1.55;;;;;;;;;;5052561;28;20029;-42
2021/08/21 11:31:50;;;;;;;2.97;1.93;;;;;;;;;;5052573;28;20078;-42
2021/08/21 11:34:16;;;;;;;3.45;1.48;;;;;;;;;;5051550;28;20021;-42
2021/08/21 11:36:41;;;;;;;3.15;1.40;;;;;;;;;;5052437;28;20109;-42
2021/08/21 11:39:07;;;;;;;2.55;1.70;;;;;;;;;;5052305;28;20069;-42
2021/08/21 11:41:33;;;;;;;2.50;1.65;;;;;;;;;;5052664;28;20017;-42
2021/08/21 11:44:04;;;;;;;3.33;1.98;;;;;;;;;;5051756;28;20550;-41
2021/08/21 11:46:29;;;;;;;2.53;1.60;;;;;;;;;;5052367;28;20079;-41
2021/08/21 11:49:04;;;;;;;6.97;1.80;;;;;;;;;;5052356;28;20032;-41
2021/08/21 11:51:29;;;;;;;6.65;2.08;;;;;;;;;;5052181;28;20025;-41
2021/08/21 11:54:03;;;;;;;2.13;1.58;;;;;;;;;;5052196;28;20096;-41
2021/08/21 11:56:28;;;;;;;3.80;2.15;;;;;;;;;;5050928;28;20029;-41
2021/08/21 11:58:54;;;;;;;3.15;1.80;;;;;;;;;;5052143;28;20348;-42
2021/08/21 12:01:25;;;;;;;3.78;1.77;;;;;;;;;;5050937;28;20029;-42
2021/08/21 12:06:23;;;;;;;2.28;1.65;;;;;;;;;;5052267;28;20017;-41
2021/08/21 12:08:48;;;;;;;;;;;;;;;;;;5051229;28;20032;-41
2021/08/21 12:11:14;;;;;;;2.33;1.35;;;;;;;;;;5052090;28;20291;-42
2021/08/21 12:13:40;;;;;;;3.15;1.40;;;;;;;;;;5051917;28;20044;-42
2021/08/21 12:16:10;;;;;;;3.33;1.48;;;;;;;;;;5052278;28;20044;-42
2021/08/21 12:18:37;;;;;;;4.50;1.67;;;;;;;;;;5051886;28;20032;-41
2021/08/21 12:21:03;;;;;;;2.58;1.75;;;;;;;;;;5051960;28;20017;-42
2021/08/21 12:23:28;;;;;;;2.67;1.65;;;;;;;;;;5051998;28;20112;-41
2021/08/21 12:25:55;;;;;;;3.40;1.98;;;;;;;;;;5051821;28;20092;-41
2021/08/21 12:28:22;;;;;;;3.67;1.45;;;;;;;;;;5051972;28;20544;-41
2021/08/21 12:30:53;;;;;;;2.30;1.52;;;;;;;;;;5055017;28;20105;-41
2021/08/21 12:33:24;;;;;;;3.75;1.58;;;;;;;;;;5055666;28;20555;-41
2021/08/21 12:35:50;;;;;;;3.83;1.38;;;;;;;;;;5055655;28;20083;-41
2021/08/21 12:38:18;;;;;;;3.38;1.70;;;;;;;;;;5055511;28;20025;-42
2021/08/21 12:40:43;;;;;;;4.78;1.60;;;;;;;;;;5054313;28;20065;-41
2021/08/21 12:43:09;;;;;;;2.42;1.60;;;;;;;;;;5055104;28;20073;-41
2021/08/21 12:45:44;;;;;;;3.15;1.45;;;;;;;;;;5055710;28;20029;-41
2021/08/21 12:48:10;;;;;;;6.10;1.90;;;;;;;;;;5055542;28;20123;-42
2021/08/21 12:50:40;;;;;;;3.53;1.90;;;;;;;;;;5055398;28;20551;-42
2021/08/21 12:53:06;;;;;;;2.15;1.30;;;;;;;;;;5055015;28;20040;-42
2021/08/21 12:55:31;;;;;;;2.45;1.63;;;;;;;;;;5055563;28;20025;-42
2021/08/21 12:58:04;;;;;;;2.03;1.20;;;;;;;;;;5055143;28;20029;-42
2021/08/21 13:00:29;;;;;;;2.92;1.35;;;;;;;;;;5055491;28;20031;-41
2021/08/21 13:02:55;;;;;;;4.05;1.52;;;;;;;;;;5054999;28;20411;-42
2021/08/21 13:05:27;;;;;;;2.25;1.50;;;;;;;;;;5055121;28;20029;-42
2021/08/21 13:08:01;;;;;;;2.72;2.28;;;;;;;;;;5055227;28;20060;-42
2021/08/21 13:10:27;;;;;;;3.55;1.83;;;;;;;;;;5055339;28;20029;-42
2021/08/21 13:12:56;;;;;;;2.33;1.27;;;;;;;;;;5053679;28;20481;-42
2021/08/21 13:15:21;;;;;;;3.45;1.60;;;;;;;;;;5053681;28;20053;-42
2021/08/21 13:17:47;;;;;;;2.28;1.55;;;;;;;;;;5054803;28;20498;-42
2021/08/21 13:20:14;;;;;;;1.90;1.20;;;;;;;;;;5054755;28;20036;-42
2021/08/21 13:22:40;;;;;;;2.78;1.67;;;;;;;;;;5054631;28;20029;-42
2021/08/21 13:25:06;;;;;;;3.08;1.60;;;;;;;;;;5053243;28;20033;-42
2021/08/21 13:27:33;;;;;;;2.45;1.85;;;;;;;;;;5054683;28;20070;-42
2021/08/21 13:29:59;;;;;;;2.97;1.73;;;;;;;;;;5054733;28;20029;-42
2021/08/21 13:32:24;;;;;;;3.47;1.48;;;;;;;;;;5054661;28;20020;-42
2021/08/21 13:34:49;;;;;;;1.33;0.73;;;;;;;;;;5053306;28;20033;-42
2021/08/21 13:37:16;;;;;;;6.50;2.20;;;;;;;;;;5054376;28;20356;-42
2021/08/21 13:39:41;;;;;;;1.90;1.27;;;;;;;;;;5054517;28;20032;-42
2021/08/21 13:42:07;;;;;;;4.10;2.10;;;;;;;;;;5053036;28;20438;-44
2021/08/21 13:44:32;;;;;;;3.17;1.73;;;;;;;;;;5054186;28;20100;-42
2021/08/21 13:46:58;;;;;;;6.30;1.42;;;;;;;;;;5054180;28;20149;-42
2021/08/21 13:49:24;;;;;;;2.72;1.42;;;;;;;;;;5054243;28;20032;-42
2021/08/21 13:51:49;;;;;;;3.03;1.48;;;;;;;;;;5054120;28;20611;-42
2021/08/21 13:54:15;;;;;;;4.13;1.88;;;;;;;;;;5052969;28;20120;-42
2021/08/21 13:56:40;;;;;;;2.00;1.60;;;;;;;;;;5053266;28;20017;-41
2021/08/21 13:59:06;;;;;;;1.73;1.10;;;;;;;;;;5053914;28;20396;-42
2021/08/21 14:01:31;;;;;;;2.35;1.58;;;;;;;;;;5054015;28;20017;-42
2021/08/21 14:03:57;;;;;;;3.70;2.00;;;;;;;;;;5053503;28;20033;-42
2021/08/21 14:06:23;;;;;;;1.48;1.38;;;;;;;;;;5054234;28;20017;-42
2021/08/21 14:08:48;;;;;;;4.60;1.50;;;;;;;;;;5054093;28;20130;-42
2021/08/21 14:11:13;;;;;;;2.50;1.50;;;;;;;;;;5053771;28;20013;-42
2021/08/21 14:13:39;;;;;;;2.92;1.42;;;;;;;;;;5053738;28;20029;-42
2021/08/21 14:16:04;;;;;;;3.20;1.73;;;;;;;;;;5053693;28;20029;-42
2021/08/21 14:18:30;;;;;;;1.90;1.33;;;;;;;;;;5053595;28;20048;-42
2021/08/21 14:20:56;;;;;;;2.80;1.90;;;;;;;;;;5053557;28;20100;-42
2021/08/21 14:23:21;;;;;;;3.03;1.88;;;;;;;;;;5052375;28;20502;-42
2021/08/21 14:25:47;;;;;;;2.08;1.63;;;;;;;;;;5053466;28;20096;-41
2021/08/21 14:28:12;;;;;;;2.53;1.40;;;;;;;;;;5053431;28;20534;-42
2021/08/21 14:30:38;;;;;;;3.40;1.73;;;;;;;;;;5053455;28;20013;-41
2021/08/21 14:33:11;;;;;;;5.60;1.52;;;;;;;;;;5052029;28;20029;-43
2021/08/21 14:35:37;;;;;;;3.40;1.63;;;;;;;;;;5053673;28;20029;-43
2021/08/21 14:38:03;;;;;;;2.00;1.27;;;;;;;;;;5053131;28;20460;-41
2021/08/21 14:40:28;;;;;;;2.05;1.67;;;;;;;;;;5053267;28;20383;-42
2021/08/21 14:42:54;;;;;;;1.85;1.30;;;;;;;;;;5053082;28;20041;-42
2021/08/21 14:45:19;;;;;;;2.97;1.70;;;;;;;;;;5053442;28;20643;-43
2021/08/21 14:47:45;;;;;;;2.00;1.17;;;;;;;;;;5053074;28;20369;-42
2021/08/21 14:50:10;;;;;;;2.88;1.60;;;;;;;;;;5053208;28;20032;-42
2021/08/21 14:52:35;;;;;;;2.40;1.55;;;;;;;;;;5052597;28;20025;-41
2021/08/21 14:55:03;;;;;;;2.13;1.55;;;;;;;;;;5053141;28;20031;-42